Time;durP1;ratioP1;P1;durP2;ratioP2;P2;SDS_P1;SDS_P2;PMS_P1;PMS_P2;Temp;Humidity;BMP_temperature;BMP_pressure;BME280_temperature;BME280_humidity;BME280_pressure;Samples;Min_cycle;Max_cycle;Signal;HPM_P1;HPM_P2
2023/12/06 00:01:25;;;;;;;55.47;33.93;;;0.10;99.90;;;;;;5037309;28;20457;-62
2023/12/06 00:03:51;;;;;;;60.00;33.27;;;0.10;99.90;;;;;;5033427;28;20555;-63
2023/12/06 00:06:16;;;;;;;58.60;32.10;;;0.20;99.90;;;;;;5034565;28;20413;-63
2023/12/06 00:08:42;;;;;;;56.90;34.93;;;0.20;99.90;;;;;;5038503;28;20286;-62
2023/12/06 00:11:08;;;;;;;53.47;32.13;;;0.20;99.90;;;;;;5038317;28;20261;-63
2023/12/06 00:13:33;;;;;;;55.33;34.80;;;0.20;99.90;;;;;;5034378;28;20182;-62
2023/12/06 00:16:00;;;;;;;57.53;34.17;;;0.20;99.90;;;;;;5033365;28;20251;-62
2023/12/06 00:18:26;;;;;;;59.27;33.57;;;0.20;99.90;;;;;;5034752;28;20183;-63
2023/12/06 00:20:51;;;;;;;51.40;32.13;;;0.20;99.90;;;;;;5027363;28;20492;-63
2023/12/06 00:23:17;;;;;;;48.23;31.47;;;0.20;99.90;;;;;;5038655;28;20508;-63
2023/12/06 00:25:43;;;;;;;56.37;35.00;;;0.20;99.90;;;;;;5024518;28;20172;-63
2023/12/06 00:28:08;;;;;;;54.43;35.03;;;0.20;99.90;;;;;;5029410;28;20164;-63
2023/12/06 00:30:34;;;;;;;56.23;36.23;;;0.20;99.90;;;;;;5014751;28;20196;-63
2023/12/06 00:33:00;;;;;;;62.93;34.90;;;0.20;99.90;;;;;;5025678;28;20187;-62
2023/12/06 00:35:25;;;;;;;51.57;32.73;;;0.30;99.90;;;;;;5042790;28;20651;-61
2023/12/06 00:37:51;;;;;;;54.80;33.00;;;0.20;99.90;;;;;;5038673;28;20167;-63
2023/12/06 00:40:16;;;;;;;53.17;32.50;;;0.20;99.90;;;;;;5042643;28;20269;-63
2023/12/06 00:42:42;;;;;;;46.37;27.77;;;0.30;99.90;;;;;;5043836;28;20183;-60
2023/12/06 00:45:08;;;;;;;57.50;35.03;;;0.30;99.90;;;;;;5048893;28;20163;-63
2023/12/06 00:47:33;;;;;;;54.97;31.67;;;0.20;99.90;;;;;;5031713;28;20183;-59
2023/12/06 00:49:59;;;;;;;56.53;34.10;;;0.20;99.90;;;;;;5030883;28;20458;-63
2023/12/06 00:52:24;;;;;;;53.87;34.30;;;0.30;99.90;;;;;;5034938;28;20698;-63
2023/12/06 00:54:50;;;;;;;46.30;30.53;;;0.30;99.90;;;;;;5029780;28;20227;-63
2023/12/06 00:57:16;;;;;;;61.47;33.47;;;0.20;99.90;;;;;;5045923;28;20677;-61
2023/12/06 00:59:41;;;;;;;57.47;34.97;;;0.20;99.90;;;;;;5028184;28;20615;-62
2023/12/06 01:02:07;;;;;;;61.77;36.40;;;0.20;99.90;;;;;;5038602;28;20587;-61
2023/12/06 01:04:39;;;;;;;64.97;34.03;;;0.30;99.90;;;;;;5022983;28;20655;-59
2023/12/06 01:07:04;;;;;;;59.57;33.20;;;0.30;99.90;;;;;;5036611;28;20588;-62
2023/12/06 01:09:30;;;;;;;55.27;36.27;;;0.30;99.90;;;;;;5035658;28;20453;-63
2023/12/06 01:11:57;;;;;;;56.30;33.57;;;0.30;99.90;;;;;;5036656;28;20729;-63
2023/12/06 01:14:22;;;;;;;60.83;36.03;;;0.30;99.90;;;;;;5039140;28;20640;-62
2023/12/06 01:16:48;;;;;;;59.90;36.30;;;0.30;99.90;;;;;;5039031;28;20429;-62
2023/12/06 01:19:15;;;;;;;57.10;34.07;;;0.30;99.90;;;;;;5045256;28;20236;-62
2023/12/06 01:21:41;;;;;;;57.10;32.00;;;0.30;99.90;;;;;;5040877;28;20203;-62
2023/12/06 01:24:06;;;;;;;54.07;33.87;;;0.30;99.90;;;;;;5034882;28;20525;-61
2023/12/06 01:26:32;;;;;;;51.17;32.60;;;0.30;99.90;;;;;;5034888;28;20495;-61
2023/12/06 01:28:59;;;;;;;52.00;29.10;;;0.30;99.90;;;;;;5034063;28;20657;-60
2023/12/06 01:31:25;;;;;;;57.23;32.70;;;0.30;99.90;;;;;;5041512;28;20928;-61
2023/12/06 01:33:50;;;;;;;57.50;33.73;;;0.30;99.90;;;;;;5041853;28;20475;-60
2023/12/06 01:36:16;;;;;;;54.20;32.77;;;0.40;99.90;;;;;;5040166;28;20246;-63
2023/12/06 01:38:41;;;;;;;59.87;36.23;;;0.30;99.90;;;;;;5041882;28;20190;-62
2023/12/06 01:41:10;;;;;;;55.30;34.30;;;0.30;99.90;;;;;;5039108;28;20194;-62
2023/12/06 01:43:36;;;;;;;58.10;36.67;;;0.30;99.90;;;;;;5046156;28;20268;-61
2023/12/06 01:46:02;;;;;;;57.13;34.13;;;0.30;99.90;;;;;;5043830;28;20417;-63
2023/12/06 01:48:30;;;;;;;54.30;34.80;;;0.30;99.90;;;;;;5038548;28;20473;-62
2023/12/06 01:50:57;;;;;;;51.97;32.37;;;0.30;99.90;;;;;;5046502;28;20441;-62
2023/12/06 01:53:22;;;;;;;52.83;32.10;;;0.30;99.90;;;;;;5021676;28;20426;-63
2023/12/06 01:55:48;;;;;;;53.67;33.63;;;0.40;99.90;;;;;;5016873;28;20441;-64
2023/12/06 01:58:14;;;;;;;61.03;36.53;;;0.40;99.90;;;;;;5028781;28;20634;-63
2023/12/06 02:00:40;;;;;;;55.13;31.83;;;0.40;99.90;;;;;;5040177;28;20458;-63
2023/12/06 02:03:06;;;;;;;53.53;35.27;;;0.40;99.90;;;;;;5035483;28;20867;-62
2023/12/06 02:05:32;;;;;;;48.47;31.77;;;0.40;99.90;;;;;;5042088;28;20501;-62
2023/12/06 02:07:59;;;;;;;52.80;34.57;;;0.40;99.90;;;;;;5039383;28;20460;-62
2023/12/06 02:10:24;;;;;;;63.43;33.90;;;0.40;99.90;;;;;;5040957;28;20430;-62
2023/12/06 02:12:50;;;;;;;58.30;34.73;;;0.40;99.90;;;;;;5026604;28;21005;-63
2023/12/06 02:15:16;;;;;;;51.10;31.77;;;0.40;99.90;;;;;;5028805;28;20174;-63
2023/12/06 02:17:42;;;;;;;65.93;36.90;;;0.40;99.90;;;;;;5020477;28;20552;-62
2023/12/06 02:20:09;;;;;;;57.50;33.87;;;0.40;99.90;;;;;;5028412;28;20207;-63
2023/12/06 02:22:35;;;;;;;62.60;34.30;;;0.40;99.90;;;;;;5028363;28;20407;-63
2023/12/06 02:25:02;;;;;;;55.03;35.40;;;0.40;99.90;;;;;;5034198;28;20409;-61
2023/12/06 02:27:28;;;;;;;58.77;30.80;;;0.40;99.90;;;;;;5039922;28;20443;-64
2023/12/06 02:29:53;;;;;;;54.87;34.13;;;0.40;99.90;;;;;;5027000;28;20459;-62
2023/12/06 02:32:19;;;;;;;54.43;33.03;;;0.40;99.90;;;;;;5026908;28;20245;-63
2023/12/06 02:34:47;;;;;;;56.90;34.67;;;0.40;99.90;;;;;;5027403;28;20172;-63
2023/12/06 02:37:14;;;;;;;59.03;34.70;;;0.40;99.90;;;;;;5033987;28;20514;-62
2023/12/06 02:39:42;;;;;;;58.43;31.97;;;0.40;99.90;;;;;;5023620;28;20423;-62
2023/12/06 02:42:10;;;;;;;60.63;34.83;;;0.40;99.90;;;;;;5032926;28;20433;-63
2023/12/06 02:44:36;;;;;;;54.40;32.77;;;0.40;99.90;;;;;;5031630;28;20803;-64
2023/12/06 02:47:02;;;;;;;57.80;32.90;;;0.50;99.90;;;;;;5024656;28;20406;-63
2023/12/06 02:49:28;;;;;;;48.07;31.43;;;0.50;99.90;;;;;;5035481;28;20697;-63
2023/12/06 02:51:54;;;;;;;50.90;32.90;;;0.50;99.90;;;;;;5030963;28;20442;-62
2023/12/06 02:54:19;;;;;;;65.27;33.27;;;0.50;99.90;;;;;;5019256;28;20853;-62
2023/12/06 02:56:45;;;;;;;53.53;30.20;;;0.50;99.90;;;;;;5020521;28;20266;-63
2023/12/06 02:59:10;;;;;;;55.37;33.40;;;0.50;99.90;;;;;;5026776;28;20262;-62
2023/12/06 03:01:36;;;;;;;52.97;31.33;;;0.50;99.90;;;;;;5027033;28;20215;-63
2023/12/06 03:04:02;;;;;;;49.97;32.00;;;0.50;99.90;;;;;;5020556;28;20184;-63
2023/12/06 03:06:27;;;;;;;53.47;31.00;;;0.50;99.90;;;;;;5028363;28;20710;-62
2023/12/06 03:08:53;;;;;;;61.83;34.30;;;0.50;99.90;;;;;;5014369;28;20204;-63
2023/12/06 03:11:18;;;;;;;55.43;34.30;;;0.40;99.90;;;;;;5027773;28;20203;-61
2023/12/06 03:13:44;;;;;;;53.87;32.70;;;0.40;99.90;;;;;;5029841;28;20176;-63
2023/12/06 03:16:09;;;;;;;56.60;33.07;;;0.40;99.90;;;;;;5002250;28;20227;-63
2023/12/06 03:18:35;;;;;;;56.30;35.03;;;0.40;99.90;;;;;;5021458;28;20183;-63
2023/12/06 03:21:01;;;;;;;48.47;31.33;;;0.40;99.90;;;;;;5026296;28;20666;-62
2023/12/06 03:23:26;;;;;;;52.70;30.60;;;0.40;99.90;;;;;;5024175;28;20391;-63
2023/12/06 03:25:52;;;;;;;58.03;33.33;;;0.40;99.90;;;;;;5024990;28;20237;-62
2023/12/06 03:28:17;;;;;;;48.40;33.33;;;0.40;99.90;;;;;;5022404;28;20199;-63
2023/12/06 03:30:43;;;;;;;62.57;35.23;;;0.40;99.90;;;;;;5023348;28;20210;-64
2023/12/06 03:33:09;;;;;;;62.63;33.53;;;0.40;99.90;;;;;;5033289;28;20703;-62
2023/12/06 03:35:34;;;;;;;58.00;31.47;;;0.50;99.90;;;;;;5034597;28;20186;-62
2023/12/06 03:38:00;;;;;;;49.10;31.90;;;0.50;99.90;;;;;;5048405;28;20531;-62
2023/12/06 03:40:25;;;;;;;51.93;31.97;;;0.40;99.90;;;;;;5032056;28;20270;-59
2023/12/06 03:42:51;;;;;;;49.97;32.43;;;0.40;99.90;;;;;;5028722;28;20172;-61
2023/12/06 03:45:17;;;;;;;70.40;32.23;;;0.40;99.90;;;;;;5034824;28;20240;-62
2023/12/06 03:47:43;;;;;;;53.10;31.53;;;0.40;99.90;;;;;;5013424;28;20573;-61
2023/12/06 03:50:08;;;;;;;52.90;31.73;;;0.40;99.90;;;;;;5021997;28;20473;-63
2023/12/06 03:52:34;;;;;;;57.27;33.07;;;0.40;99.90;;;;;;5034333;28;20322;-62
2023/12/06 03:55:00;;;;;;;49.50;29.77;;;0.50;99.90;;;;;;5033367;28;20172;-62
2023/12/06 03:57:25;;;;;;;54.23;32.53;;;0.40;99.90;;;;;;5018980;28;20265;-63
2023/12/06 03:59:51;;;;;;;53.17;30.43;;;0.40;99.90;;;;;;5033198;28;20171;-63
2023/12/06 04:02:18;;;;;;;56.97;32.37;;;0.40;99.90;;;;;;5024396;28;20657;-62
2023/12/06 04:04:44;;;;;;;58.33;31.20;;;0.40;99.90;;;;;;5020753;28;20212;-62
2023/12/06 04:07:10;;;;;;;54.50;31.23;;;0.50;99.90;;;;;;5014579;28;20429;-61
2023/12/06 04:09:36;;;;;;;56.80;32.97;;;0.50;99.90;;;;;;5035806;28;20456;-63
2023/12/06 04:12:02;;;;;;;53.37;33.17;;;0.40;99.90;;;;;;5015396;28;20687;-61
2023/12/06 04:14:27;;;;;;;53.07;34.20;;;0.50;99.90;;;;;;5029190;28;20172;-61
2023/12/06 04:16:53;;;;;;;55.20;33.93;;;0.50;99.90;;;;;;5038426;28;20410;-61
2023/12/06 04:19:19;;;;;;;54.23;32.93;;;0.50;99.90;;;;;;5025989;28;20229;-60
2023/12/06 04:21:44;;;;;;;49.43;29.90;;;0.50;99.90;;;;;;5028095;28;20218;-62
2023/12/06 04:24:10;;;;;;;51.50;32.70;;;0.50;99.90;;;;;;5033782;28;20249;-63
2023/12/06 04:26:41;;;;;;;57.03;31.30;;;0.50;99.90;;;;;;5025913;28;20553;-63
2023/12/06 04:29:07;;;;;;;62.20;32.33;;;0.50;99.90;;;;;;4988896;28;20274;-62
2023/12/06 04:31:32;;;;;;;51.63;33.77;;;0.50;99.90;;;;;;5018867;28;20466;-63
2023/12/06 04:33:59;;;;;;;62.43;34.03;;;0.50;99.90;;;;;;5026752;28;20175;-61
2023/12/06 04:36:24;;;;;;;54.93;33.70;;;0.50;99.90;;;;;;5038757;28;20176;-64
2023/12/06 04:38:50;;;;;;;54.80;33.70;;;0.50;99.90;;;;;;5023219;28;20434;-61
2023/12/06 04:41:16;;;;;;;66.13;37.03;;;0.50;99.90;;;;;;5027221;28;20191;-63
2023/12/06 04:43:42;;;;;;;54.60;30.17;;;0.50;99.90;;;;;;5028288;28;20706;-62
2023/12/06 04:46:08;;;;;;;59.43;34.30;;;0.50;99.90;;;;;;5043969;28;20417;-63
2023/12/06 04:48:33;;;;;;;64.07;37.03;;;0.50;99.90;;;;;;5029359;28;20200;-62
2023/12/06 04:51:00;;;;;;;58.57;34.40;;;0.50;99.90;;;;;;5033336;28;20836;-62
2023/12/06 04:53:25;;;;;;;60.57;32.13;;;0.50;99.90;;;;;;5036000;28;20189;-59
2023/12/06 04:55:51;;;;;;;70.47;39.63;;;0.50;99.90;;;;;;5032269;28;20416;-61
2023/12/06 04:58:16;;;;;;;64.60;34.70;;;0.60;99.90;;;;;;5046224;28;20225;-59
2023/12/06 05:00:43;;;;;;;59.90;34.30;;;0.50;99.90;;;;;;5035963;28;20211;-60
2023/12/06 05:03:09;;;;;;;66.90;36.07;;;0.50;99.90;;;;;;5038752;28;20175;-58
2023/12/06 05:05:34;;;;;;;60.50;35.80;;;0.50;99.90;;;;;;5039678;28;20708;-59
2023/12/06 05:08:00;;;;;;;57.37;31.73;;;0.50;99.90;;;;;;5046423;28;20171;-62
2023/12/06 05:10:26;;;;;;;56.13;33.27;;;0.50;99.90;;;;;;5029795;28;20275;-63
2023/12/06 05:12:51;;;;;;;52.30;34.03;;;0.50;99.90;;;;;;5029275;28;20175;-62
2023/12/06 05:15:17;;;;;;;63.33;36.60;;;0.50;99.90;;;;;;5031237;28;20251;-61
2023/12/06 05:17:42;;;;;;;62.33;34.60;;;0.50;99.90;;;;;;5036657;28;20194;-61
2023/12/06 05:20:10;;;;;;;58.13;34.23;;;0.50;99.90;;;;;;5030938;28;20199;-63
2023/12/06 05:22:36;;;;;;;71.87;36.00;;;0.50;99.90;;;;;;5019856;28;20183;-63
2023/12/06 05:25:03;;;;;;;57.97;31.90;;;0.50;99.90;;;;;;5025098;28;20430;-63
2023/12/06 05:27:29;;;;;;;59.77;34.80;;;0.50;99.90;;;;;;5032496;28;20511;-61
2023/12/06 05:29:54;;;;;;;67.17;36.00;;;0.50;99.90;;;;;;5033723;28;20469;-59
2023/12/06 05:32:20;;;;;;;62.07;33.83;;;0.50;99.90;;;;;;5025355;28;20237;-62
2023/12/06 05:34:46;;;;;;;65.73;37.17;;;0.50;99.90;;;;;;5025694;28;20203;-63
2023/12/06 05:37:11;;;;;;;59.90;33.70;;;0.60;99.90;;;;;;5026601;28;20662;-62
2023/12/06 05:39:37;;;;;;;56.73;34.97;;;0.60;99.90;;;;;;5026591;28;20176;-63
2023/12/06 05:42:03;;;;;;;61.57;37.77;;;0.60;99.90;;;;;;5019368;28;20210;-63
2023/12/06 05:44:30;;;;;;;57.67;32.67;;;0.60;99.90;;;;;;5027114;28;20211;-62
2023/12/06 05:46:55;;;;;;;62.50;34.87;;;0.60;99.90;;;;;;5027649;28;20430;-59
2023/12/06 05:49:22;;;;;;;55.53;33.57;;;0.60;99.90;;;;;;5028500;28;20461;-61
2023/12/06 05:51:48;;;;;;;65.83;32.63;;;0.60;99.90;;;;;;5021034;28;20568;-63
2023/12/06 05:54:14;;;;;;;61.03;35.27;;;0.60;99.90;;;;;;5032470;28;20519;-60
2023/12/06 05:56:39;;;;;;;55.33;30.80;;;0.70;99.90;;;;;;5014016;28;20650;-62
2023/12/06 05:59:05;;;;;;;55.00;34.37;;;0.60;99.90;;;;;;5021078;28;20418;-60
2023/12/06 06:01:30;;;;;;;58.93;33.80;;;0.60;99.90;;;;;;5029014;28;20203;-62
2023/12/06 06:03:56;;;;;;;72.10;38.67;;;0.60;99.90;;;;;;5035096;28;20179;-62
2023/12/06 06:06:22;;;;;;;66.57;34.23;;;0.60;99.90;;;;;;5030666;28;20172;-61
2023/12/06 06:08:48;;;;;;;65.93;36.03;;;0.60;99.90;;;;;;5029872;28;20537;-63
2023/12/06 06:11:14;;;;;;;64.63;33.07;;;0.60;99.90;;;;;;5027242;28;20215;-63
2023/12/06 06:13:39;;;;;;;63.90;34.90;;;0.60;99.90;;;;;;5034037;28;20630;-62
2023/12/06 06:16:06;;;;;;;66.90;36.10;;;0.60;99.90;;;;;;5025179;28;20414;-62
2023/12/06 06:18:31;;;;;;;58.30;33.00;;;0.70;99.90;;;;;;5023659;28;20179;-60
2023/12/06 06:20:58;;;;;;;60.10;33.47;;;0.70;99.90;;;;;;5033593;28;21075;-62
2023/12/06 06:23:24;;;;;;;56.70;31.43;;;0.60;99.90;;;;;;5029814;28;20667;-62
2023/12/06 06:25:49;;;;;;;64.03;34.70;;;0.60;99.90;;;;;;5028525;28;20414;-60
2023/12/06 06:28:15;;;;;;;60.53;36.00;;;0.60;99.90;;;;;;5034033;28;20214;-61
2023/12/06 06:30:41;;;;;;;58.20;34.83;;;0.60;99.90;;;;;;5030389;28;20566;-60
2023/12/06 06:33:07;;;;;;;61.47;33.67;;;0.60;99.90;;;;;;5040484;28;20502;-61
2023/12/06 06:35:33;;;;;;;57.80;34.50;;;0.60;99.90;;;;;;5044738;28;20172;-60
2023/12/06 06:37:58;;;;;;;56.00;31.00;;;0.70;99.90;;;;;;5040177;28;20406;-60
2023/12/06 06:40:24;;;;;;;49.40;31.43;;;0.60;99.90;;;;;;5034672;28;20200;-64
2023/12/06 06:42:50;;;;;;;60.30;31.50;;;0.60;99.90;;;;;;5028603;28;20182;-61
2023/12/06 06:45:15;;;;;;;64.63;36.03;;;0.60;99.90;;;;;;5029124;28;20183;-61
2023/12/06 06:47:41;;;;;;;57.83;33.03;;;0.60;99.90;;;;;;5030896;28;20199;-63
2023/12/06 06:50:07;;;;;;;55.33;29.90;;;0.60;99.90;;;;;;5033717;28;20306;-63
2023/12/06 06:52:34;;;;;;;57.93;33.20;;;0.60;99.90;;;;;;5029984;28;20175;-62
2023/12/06 06:55:00;;;;;;;68.60;36.10;;;0.60;99.90;;;;;;5023291;28;20418;-61
2023/12/06 06:57:25;;;;;;;63.87;35.90;;;0.60;99.90;;;;;;5026919;28;20414;-60
2023/12/06 06:59:51;;;;;;;57.50;35.10;;;0.60;99.90;;;;;;5029890;28;20184;-61
2023/12/06 07:02:16;;;;;;;59.33;32.70;;;0.60;99.90;;;;;;5029067;28;20215;-60
2023/12/06 07:04:43;;;;;;;71.23;37.50;;;0.60;99.90;;;;;;5027986;28;20187;-62
2023/12/06 07:07:09;;;;;;;53.40;32.30;;;0.60;99.90;;;;;;5028877;28;20179;-62
2023/12/06 07:09:34;;;;;;;56.40;33.27;;;0.60;99.90;;;;;;5036764;28;20963;-59
2023/12/06 07:12:00;;;;;;;56.93;34.63;;;0.60;99.90;;;;;;5026305;28;20514;-62
2023/12/06 07:14:25;;;;;;;59.63;32.77;;;0.70;99.90;;;;;;5032236;28;20167;-58
2023/12/06 07:16:53;;;;;;;57.00;33.30;;;0.70;99.90;;;;;;5036690;28;20237;-62
2023/12/06 07:19:18;;;;;;;61.20;34.43;;;0.60;99.90;;;;;;5030338;28;20186;-62
2023/12/06 07:21:44;;;;;;;58.23;36.60;;;0.70;99.90;;;;;;5027206;28;20449;-61
2023/12/06 07:24:09;;;;;;;61.20;34.07;;;0.70;99.90;;;;;;5035532;28;20274;-61
2023/12/06 07:26:36;;;;;;;64.80;33.30;;;0.70;99.90;;;;;;5025834;28;20183;-63
2023/12/06 07:29:01;;;;;;;59.50;32.93;;;0.70;99.90;;;;;;5030739;28;20199;-63
2023/12/06 07:31:27;;;;;;;63.87;35.63;;;0.70;99.90;;;;;;5026984;28;20442;-63
2023/12/06 07:33:52;;;;;;;59.07;32.00;;;0.70;99.90;;;;;;5033383;28;20176;-63
2023/12/06 07:36:18;;;;;;;63.33;33.40;;;0.70;99.90;;;;;;5027349;28;20184;-62
2023/12/06 07:38:43;;;;;;;60.13;32.40;;;0.70;99.90;;;;;;5018497;28;20180;-59
2023/12/06 07:41:09;;;;;;;56.77;34.40;;;0.70;99.90;;;;;;5032770;28;20693;-63
2023/12/06 07:43:35;;;;;;;57.50;34.40;;;0.70;99.90;;;;;;5044421;28;20198;-62
2023/12/06 07:46:02;;;;;;;53.50;32.60;;;0.70;99.90;;;;;;5035209;28;20218;-58
2023/12/06 07:48:27;;;;;;;63.50;33.73;;;0.70;99.90;;;;;;5029806;28;20195;-58
2023/12/06 07:50:53;;;;;;;59.80;35.03;;;0.70;99.90;;;;;;5036778;28;20488;-62
2023/12/06 07:53:19;;;;;;;63.70;36.20;;;0.70;99.90;;;;;;5032925;28;20175;-62
2023/12/06 07:55:45;;;;;;;59.47;34.50;;;0.70;99.90;;;;;;5046921;28;20710;-61
2023/12/06 07:58:11;;;;;;;52.40;35.37;;;0.70;99.90;;;;;;5039739;28;20493;-62
2023/12/06 08:00:37;;;;;;;57.17;33.60;;;0.70;99.90;;;;;;5035915;28;20376;-61
2023/12/06 08:03:03;;;;;;;57.10;32.77;;;0.60;99.90;;;;;;5034479;28;20172;-60
2023/12/06 08:05:28;;;;;;;57.30;33.83;;;0.70;99.90;;;;;;5033586;28;20180;-61
2023/12/06 08:07:54;;;;;;;60.23;34.90;;;0.70;99.90;;;;;;5027658;28;20402;-61
2023/12/06 08:10:22;;;;;;;55.43;34.10;;;0.60;99.90;;;;;;5034793;28;20573;-62
2023/12/06 08:12:49;;;;;;;57.27;32.37;;;0.70;99.90;;;;;;5035240;28;20179;-60
2023/12/06 08:15:15;;;;;;;55.10;32.47;;;0.70;99.90;;;;;;5024423;28;20462;-60
2023/12/06 08:17:41;;;;;;;64.90;36.83;;;0.70;99.90;;;;;;5020980;28;20446;-60
2023/12/06 08:20:10;;;;;;;59.90;32.97;;;0.70;99.90;;;;;;5031004;28;20472;-61
2023/12/06 08:22:36;;;;;;;58.17;35.50;;;0.70;99.90;;;;;;5018210;28;20184;-58
2023/12/06 08:25:01;;;;;;;63.00;35.70;;;0.70;99.90;;;;;;5028527;28;20434;-59
2023/12/06 08:27:28;;;;;;;56.73;33.27;;;0.70;99.90;;;;;;5031566;28;20222;-59
2023/12/06 08:29:58;;;;;;;64.53;35.30;;;0.70;99.90;;;;;;5030844;28;20231;-64
2023/12/06 08:32:24;;;;;;;64.97;36.77;;;0.70;99.90;;;;;;5014761;28;20849;-60
2023/12/06 08:34:50;;;;;;;64.67;35.60;;;0.70;99.90;;;;;;5033464;28;20690;-58
2023/12/06 08:37:16;;;;;;;57.20;34.47;;;0.70;99.90;;;;;;5009089;28;20532;-55
2023/12/06 08:39:41;;;;;;;61.23;34.77;;;0.70;99.90;;;;;;5003408;28;20195;-63
2023/12/06 08:42:08;;;;;;;55.60;36.20;;;0.70;99.90;;;;;;5027239;28;20791;-61
2023/12/06 08:44:34;;;;;;;54.07;35.43;;;0.80;99.90;;;;;;5030855;28;20646;-62
2023/12/06 08:46:59;;;;;;;59.73;33.07;;;0.80;99.90;;;;;;5031574;28;20493;-61
2023/12/06 08:49:25;;;;;;;61.70;34.10;;;0.90;99.90;;;;;;5033652;28;20226;-61
2023/12/06 08:51:51;;;;;;;57.97;33.77;;;0.80;99.90;;;;;;5028894;28;20199;-60
2023/12/06 08:54:17;;;;;;;74.43;35.73;;;1.00;99.90;;;;;;5035992;28;20250;-57
2023/12/06 08:56:42;;;;;;;64.47;36.40;;;1.00;99.90;;;;;;5024112;28;20460;-59
2023/12/06 08:59:08;;;;;;;66.60;35.87;;;0.90;99.90;;;;;;5035696;28;20226;-58
2023/12/06 09:01:33;;;;;;;60.23;35.30;;;1.00;99.90;;;;;;5031379;28;20215;-59
2023/12/06 09:03:59;;;;;;;63.60;36.30;;;1.00;99.90;;;;;;5027782;28;20222;-62
2023/12/06 09:06:25;;;;;;;60.47;34.50;;;1.00;99.90;;;;;;5025537;28;20191;-62
2023/12/06 09:08:51;;;;;;;59.00;33.47;;;1.00;99.90;;;;;;5012104;28;20196;-60
2023/12/06 09:11:20;;;;;;;68.80;34.80;;;1.10;99.90;;;;;;5032040;28;20430;-57
2023/12/06 09:13:46;;;;;;;59.43;34.50;;;1.10;99.90;;;;;;5017439;28;20183;-60
2023/12/06 09:16:12;;;;;;;66.83;36.87;;;1.10;99.90;;;;;;5016354;28;20430;-60
2023/12/06 09:18:38;;;;;;;64.37;32.97;;;1.00;99.90;;;;;;5030182;28;20426;-63
2023/12/06 09:21:04;;;;;;;62.07;34.80;;;1.00;99.90;;;;;;5037516;28;20445;-63
2023/12/06 09:23:31;;;;;;;58.87;32.57;;;1.10;99.90;;;;;;5026205;28;20237;-63
2023/12/06 09:25:57;;;;;;;57.00;35.53;;;1.10;99.90;;;;;;5031046;28;20489;-64
2023/12/06 09:28:23;;;;;;;61.83;31.60;;;1.10;99.90;;;;;;5030276;28;20407;-63
2023/12/06 09:30:48;;;;;;;55.40;31.40;;;1.20;99.90;;;;;;5030300;28;20936;-61
2023/12/06 09:33:14;;;;;;;53.20;32.57;;;1.10;99.90;;;;;;5028885;28;20179;-63
2023/12/06 09:35:40;;;;;;;48.97;30.23;;;1.10;99.90;;;;;;5031891;28;20175;-62
2023/12/06 09:38:05;;;;;;;60.30;32.67;;;1.20;99.90;;;;;;5019942;28;20642;-63
2023/12/06 09:40:31;;;;;;;62.33;32.47;;;1.20;99.90;;;;;;5025759;28;20662;-63
2023/12/06 09:43:02;;;;;;;61.97;33.67;;;1.20;99.90;;;;;;5030312;28;20180;-62
2023/12/06 09:45:29;;;;;;;53.63;30.23;;;1.10;99.90;;;;;;5030599;28;20421;-63
2023/12/06 09:47:56;;;;;;;54.07;33.10;;;1.10;99.90;;;;;;5023346;28;20451;-61
2023/12/06 09:50:24;;;;;;;57.10;32.80;;;1.00;99.90;;;;;;5027140;28;21284;-63
2023/12/06 09:52:54;;;;;;;64.10;34.00;;;1.00;99.90;;;;;;5033014;28;20430;-62
2023/12/06 09:55:24;;;;;;;53.83;32.77;;;1.00;99.90;;;;;;5034821;28;20407;-62
2023/12/06 09:57:52;;;;;;;55.33;32.07;;;1.00;99.90;;;;;;5018358;28;20484;-62
2023/12/06 10:00:18;;;;;;;47.47;30.87;;;1.00;99.90;;;;;;5030756;28;20453;-64
2023/12/06 10:02:54;;;;;;;52.87;34.33;;;1.10;99.90;;;;;;5032318;28;21166;-65
2023/12/06 10:05:21;;;;;;;62.50;34.27;;;1.10;99.90;;;;;;5034217;28;20410;-62
2023/12/06 10:07:48;;;;;;;56.87;31.13;;;1.00;99.90;;;;;;5025439;28;20462;-63
2023/12/06 10:10:22;;;;;;;54.57;31.80;;;1.10;99.90;;;;;;5039929;28;20466;-63
2023/12/06 10:12:58;;;;;;;57.77;31.80;;;1.00;99.90;;;;;;5031298;28;20834;-63
2023/12/06 10:15:24;;;;;;;56.00;31.10;;;1.00;99.90;;;;;;5030904;28;20426;-62
2023/12/06 10:17:50;;;;;;;59.03;32.33;;;1.10;99.90;;;;;;5034535;28;20433;-64
2023/12/06 10:20:19;;;;;;;63.93;32.83;;;1.10;99.90;;;;;;5017986;28;20484;-62
2023/12/06 10:22:45;;;;;;;65.47;32.67;;;1.10;99.90;;;;;;5046343;28;20536;-66
2023/12/06 10:25:11;;;;;;;56.70;31.97;;;1.10;99.90;;;;;;5030757;28;20553;-63
2023/12/06 10:27:37;;;;;;;61.77;32.43;;;1.20;99.90;;;;;;5031080;28;20184;-62
2023/12/06 10:30:06;;;;;;;62.60;33.80;;;1.10;99.90;;;;;;5033603;28;20203;-64
2023/12/06 10:32:33;;;;;;;59.27;32.73;;;1.10;99.90;;;;;;5010457;28;20215;-60
2023/12/06 10:35:05;;;;;;;58.37;34.37;;;1.20;99.90;;;;;;5026203;28;20418;-62
2023/12/06 10:37:32;;;;;;;51.97;30.67;;;1.20;99.90;;;;;;5035547;28;20425;-62
2023/12/06 10:40:10;;;;;;;56.77;34.07;;;1.30;99.90;;;;;;5043406;28;20792;-64
2023/12/06 10:42:37;;;;;;;52.97;32.60;;;1.40;99.90;;;;;;5011975;28;20413;-62
2023/12/06 10:45:05;;;;;;;58.97;34.17;;;1.40;99.90;;;;;;5042200;28;20823;-61
2023/12/06 10:47:31;;;;;;;56.67;33.37;;;1.40;99.90;;;;;;5038124;28;20912;-62
2023/12/06 10:49:58;;;;;;;56.40;33.83;;;1.30;99.90;;;;;;5021423;28;20897;-63
2023/12/06 10:52:24;;;;;;;51.20;30.70;;;1.30;99.90;;;;;;5025886;28;20851;-63
2023/12/06 10:54:51;;;;;;;53.10;31.70;;;1.30;99.90;;;;;;5029617;28;20476;-63
2023/12/06 10:57:18;;;;;;;58.27;32.93;;;1.30;99.90;;;;;;5034489;28;20513;-64
2023/12/06 10:59:45;;;;;;;53.40;30.67;;;1.30;99.90;;;;;;5034634;28;20425;-63
2023/12/06 11:02:12;;;;;;;83.47;47.10;;;1.30;99.90;;;;;;5014024;28;20957;-60
2023/12/06 11:05:03;;;;;;;55.93;32.87;;;1.50;99.90;;;;;;5030302;28;20445;-60
2023/12/06 11:07:49;;;;;;;62.37;33.30;;;1.60;99.90;;;;;;5021506;28;20478;-60
2023/12/06 11:10:46;;;;;;;59.47;31.47;;;1.50;99.90;;;;;;5028421;28;20474;-61
2023/12/06 11:13:52;;;;;;;57.47;32.03;;;1.50;99.90;;;;;;5026970;28;20453;-61
2023/12/06 11:16:46;;;;;;;53.37;32.13;;;1.50;99.90;;;;;;5022818;28;20434;-61
2023/12/06 11:19:12;;;;;;;54.47;30.80;;;1.50;99.90;;;;;;5025942;28;20491;-62
2023/12/06 11:21:38;;;;;;;56.20;32.17;;;1.60;99.90;;;;;;5034183;28;20445;-62
2023/12/06 11:24:08;;;;;;;70.13;35.10;;;1.50;99.90;;;;;;5029997;28;20430;-60
2023/12/06 11:26:34;;;;;;;56.07;30.87;;;1.50;99.90;;;;;;5034017;28;20517;-60
2023/12/06 11:29:02;;;;;;;61.23;31.73;;;1.50;99.90;;;;;;5030805;28;20623;-61
2023/12/06 11:31:36;;;;;;;60.53;33.30;;;1.50;99.90;;;;;;5036597;28;20925;-62
2023/12/06 11:34:08;;;;;;;61.03;35.10;;;1.50;99.90;;;;;;5035104;28;20498;-62
2023/12/06 11:36:35;;;;;;;53.80;31.10;;;1.40;99.90;;;;;;5025816;28;20415;-61
2023/12/06 11:39:16;;;;;;;57.67;35.00;;;1.50;99.90;;;;;;5027532;28;20533;-61
2023/12/06 11:41:55;;;;;;;51.73;30.40;;;1.50;99.90;;;;;;5018990;28;20450;-61
2023/12/06 11:44:20;;;;;;;52.10;31.63;;;1.60;99.90;;;;;;5019358;28;20915;-61
2023/12/06 11:46:50;;;;;;;56.70;33.40;;;1.50;99.90;;;;;;5028607;28;20458;-62
2023/12/06 11:49:17;;;;;;;57.57;32.67;;;1.50;99.90;;;;;;5034872;28;20222;-62
2023/12/06 11:51:43;;;;;;;52.83;31.00;;;1.50;99.90;;;;;;5032003;28;20492;-60
2023/12/06 11:54:09;;;;;;;56.50;32.20;;;1.60;99.90;;;;;;5028881;28;20966;-63
2023/12/06 11:56:35;;;;;;;53.83;31.73;;;1.50;99.90;;;;;;5029612;28;20285;-62
2023/12/06 11:59:02;;;;;;;52.80;30.37;;;1.50;99.90;;;;;;5030301;28;20580;-62
2023/12/06 12:01:29;;;;;;;50.07;30.60;;;1.50;99.90;;;;;;5031914;28;20857;-62
2023/12/06 12:03:55;;;;;;;45.53;29.00;;;1.50;99.90;;;;;;5031070;28;20429;-61
2023/12/06 12:06:23;;;;;;;52.33;32.43;;;1.50;99.90;;;;;;5032570;28;20426;-63
2023/12/06 12:08:49;;;;;;;51.63;31.80;;;1.50;99.90;;;;;;5029440;28;20207;-62
2023/12/06 12:11:17;;;;;;;66.10;35.47;;;1.50;99.90;;;;;;5030587;28;20821;-59
2023/12/06 12:13:42;;;;;;;50.80;30.73;;;1.50;99.90;;;;;;5006978;28;20419;-58
2023/12/06 12:16:10;;;;;;;53.17;33.27;;;1.60;99.90;;;;;;5037699;28;20764;-56
2023/12/06 12:18:35;;;;;;;59.63;31.63;;;1.60;99.90;;;;;;5027486;28;20706;-61
2023/12/06 12:21:11;;;;;;;46.80;28.83;;;1.60;99.90;;;;;;5028544;28;20521;-64
2023/12/06 12:23:36;;;;;;;45.60;29.00;;;1.60;99.90;;;;;;5027962;28;20549;-60
2023/12/06 12:26:02;;;;;;;67.33;33.20;;;1.60;99.90;;;;;;5031117;28;20423;-61
2023/12/06 12:28:29;;;;;;;56.80;31.43;;;1.60;99.90;;;;;;5032910;28;20626;-62
2023/12/06 12:31:06;;;;;;;56.57;29.93;;;1.70;99.90;;;;;;5032017;28;20192;-62
2023/12/06 12:33:32;;;;;;;47.50;28.23;;;1.60;99.90;;;;;;5035250;28;20496;-62